Time;durP1;ratioP1;P1;durP2;ratioP2;P2;SDS_P1;SDS_P2;PMS_P1;PMS_P2;Temp;Humidity;BMP_temperature;BMP_pressure;BME280_temperature;BME280_humidity;BME280_pressure;Samples;Min_cycle;Max_cycle;Signal;HPM_P1;HPM_P2
2022/06/02 00:03:25;;;;;;;0.55;0.40;;;;;;;19.60;47.31;101916.75;16220479;19;130445;-58
2022/06/02 00:08:50;;;;;;;0.90;0.30;;;;;;;19.58;47.22;101916.97;16225588;19;130795;-59
2022/06/02 00:14:32;;;;;;;0.47;0.27;;;;;;;19.58;47.27;101916.97;16227314;19;129386;-59
2022/06/02 00:20:08;;;;;;;0.73;0.20;;;;;;;19.58;47.06;101921.69;16227934;19;129530;-59
2022/06/02 00:25:33;;;;;;;0.65;0.20;;;;;;;19.55;47.24;101920.22;16224577;19;129463;-59
2022/06/02 00:31:09;;;;;;;0.57;0.20;;;;;;;19.56;47.36;101926.63;16221358;19;129004;-59
2022/06/02 00:36:47;;;;;;;1.38;0.25;;;;;;;19.56;47.36;101926.63;16226100;19;130642;-57
2022/06/02 00:42:24;;;;;;;0.20;0.20;;;;;;;19.53;47.67;101923.22;16215296;19;128873;-56
2022/06/02 00:48:04;;;;;;;0.68;0.30;;;;;;;19.53;47.25;101927.94;16218176;19;130102;-56
2022/06/02 00:59:47;;;;;;;0.73;0.25;;;;;;;19.49;47.33;101933.09;16218012;19;129638;-56
2022/06/02 01:05:10;;;;;;;0.40;0.30;;;;;;;19.48;47.44;101944.41;16218578;19;130190;-59
2022/06/02 01:10:46;;;;;;;0.90;0.20;;;;;;;19.49;47.53;101935.88;16216493;19;129007;-59
2022/06/02 01:16:17;;;;;;;0.20;0.20;;;;;;;19.48;47.53;101944.41;16217176;19;130765;-58
2022/06/02 01:21:42;;;;;;;0.30;0.20;;;;;;;19.47;47.56;101937.16;16217369;19;129512;-59
2022/06/02 01:27:06;;;;;;;1.37;0.53;;;;;;;19.45;47.84;101942.94;16218868;19;128556;-58
2022/06/02 01:33:03;;;;;;;0.20;0.20;;;;;;;19.45;47.92;101944.84;16214107;19;129065;-58
2022/06/02 01:44:18;;;;;;;0.20;0.20;;;;;;;19.42;47.82;101942.53;16212514;19;130250;-50
2022/06/02 01:49:52;;;;;;;0.28;0.20;;;;;;;19.42;47.96;101953.66;16208832;19;130133;-54
2022/06/02 01:55:28;;;;;;;0.10;0.10;;;;;;;19.42;47.67;101956.41;16211175;19;131338;-49
2022/06/02 02:01:09;;;;;;;0.75;0.20;;;;;;;19.40;47.84;101944.69;16209901;19;129515;-51
2022/06/02 02:06:45;;;;;;;0.20;0.20;;;;;;;19.37;47.81;101944.06;16208230;19;130359;-53
2022/06/02 02:12:18;;;;;;;0.30;0.30;;;;;;;19.37;47.76;101946.00;16273155;19;131681;-57
2022/06/02 02:17:46;;;;;;;0.28;0.20;;;;;;;19.37;48.11;101957.94;16297476;19;129553;-57
2022/06/02 02:23:35;;;;;;;0.98;0.30;;;;;;;19.36;47.90;101956.25;16291339;19;129496;-57
2022/06/02 02:29:34;;;;;;;0.75;0.40;;;;;;;19.36;47.90;101955.41;16297821;19;130015;-56
2022/06/02 02:34:56;;;;;;;0.65;0.40;;;;;;;19.32;48.07;101952.22;16253019;19;129556;-59
2022/06/02 02:40:43;;;;;;;0.40;0.20;;;;;;;19.33;48.08;101950.31;16234459;19;129996;-57
2022/06/02 02:46:13;;;;;;;1.38;0.20;;;;;;;19.32;48.00;101959.69;16241455;19;129722;-59
2022/06/02 02:52:00;;;;;;;0.30;0.30;;;;;;;19.30;48.04;101951.59;16223976;19;129914;-58
2022/06/02 02:57:31;;;;;;;;;;;;;;;19.25;47.98;101965.28;16177543;19;129528;-58
2022/06/02 03:03:17;;;;;;;0.30;0.30;;;;;;;19.29;47.84;101966.56;16171701;19;128862;-58
2022/06/02 03:08:58;;;;;;;0.13;0.13;;;;;;;19.28;47.94;101973.19;16169007;19;130506;-58
2022/06/02 03:14:39;;;;;;;0.22;0.20;;;;;;;19.27;48.00;101977.03;16174971;19;128994;-58
2022/06/02 03:20:15;;;;;;;0.10;0.10;;;;;;;19.26;48.37;101975.31;16172683;19;128799;-58
2022/06/02 03:25:55;;;;;;;0.10;0.10;;;;;;;19.26;48.36;101983.66;16175318;19;129438;-57
2022/06/02 03:31:39;;;;;;;0.20;0.20;;;;;;;19.25;47.91;101989.44;16173702;19;129192;-58
2022/06/02 03:37:20;;;;;;;0.40;0.17;;;;;;;19.22;47.92;101999.91;16171935;19;129481;-56
2022/06/02 03:43:11;;;;;;;0.40;0.22;;;;;;;19.23;47.86;101986.84;16168260;19;129644;-59
2022/06/02 03:49:01;;;;;;;0.20;0.20;;;;;;;19.22;48.05;101993.47;16167594;19;130619;-57
2022/06/02 03:54:43;;;;;;;0.20;0.20;;;;;;;19.19;48.32;102005.84;16166514;19;129414;-56
2022/06/02 04:00:07;;;;;;;0.10;0.10;;;;;;;19.20;47.94;102001.16;16163281;19;129099;-58
2022/06/02 04:05:52;;;;;;;0.10;0.10;;;;;;;19.19;48.15;102005.84;16163746;19;130363;-58
2022/06/02 04:17:56;;;;;;;0.13;0.10;;;;;;;19.19;48.56;102019.72;16164641;19;129537;-59
2022/06/02 04:23:37;;;;;;;0.03;0.03;;;;;;;19.18;48.51;102014.41;16161229;19;129212;-58
2022/06/02 04:29:07;;;;;;;0.10;0.10;;;;;;;19.17;48.24;102008.00;16157378;19;129811;-58
2022/06/02 04:34:55;;;;;;;0.10;0.10;;;;;;;19.18;48.03;102014.41;16165003;19;128996;-58
2022/06/02 04:40:38;;;;;;;1.17;0.20;;;;;;;19.18;48.27;102017.19;16160150;19;129392;-58
2022/06/02 04:46:34;;;;;;;0.20;0.20;;;;;;;19.17;48.20;102012.72;16169750;19;129845;-58
2022/06/02 04:52:20;;;;;;;0.30;0.30;;;;;;;19.17;48.03;102012.72;16165745;19;131944;-57
2022/06/02 04:58:06;;;;;;;0.37;0.33;;;;;;;19.16;47.88;102014.63;16157855;19;129281;-58
2022/06/02 05:04:01;;;;;;;0.20;0.20;;;;;;;19.17;47.86;102021.03;16157877;19;129291;-54
2022/06/02 05:09:30;;;;;;;0.50;0.30;;;;;;;19.17;48.10;102015.47;16158087;19;131197;-56
2022/06/02 05:15:01;;;;;;;0.45;0.45;;;;;;;19.16;47.90;102016.56;16155760;19;129424;-56
2022/06/02 05:21:11;;;;;;;0.80;0.70;;;;;;;19.19;48.31;102018.88;16160279;19;130492;-52
2022/06/02 05:26:51;;;;;;;5.25;0.50;;;;;;;19.28;48.65;102025.88;16169452;19;129355;-59
2022/06/02 05:32:30;;;;;;;7.10;0.63;;;;;;;19.38;49.33;102020.69;16180683;19;129115;-59
2022/06/02 05:38:21;;;;;;;2.38;0.20;;;;;;;19.51;49.63;102025.28;16180206;19;129176;-59
2022/06/02 05:43:57;;;;;;;0.68;0.20;;;;;;;19.62;49.47;102026.47;16160985;19;129955;-59
2022/06/02 05:49:27;;;;;;;1.17;0.30;;;;;;;19.72;49.51;102036.22;16177428;19;129348;-59
2022/06/02 05:55:11;;;;;;;2.58;0.30;;;;;;;19.83;49.83;102046.59;16171321;19;129512;-59
2022/06/02 06:00:57;;;;;;;2.05;0.30;;;;;;;19.90;50.58;102055.72;16132585;19;129387;-59
2022/06/02 06:06:30;;;;;;;0.50;0.30;;;;;;;19.95;50.29;102064.19;16138037;19;129141;-59
2022/06/02 06:12:24;;;;;;;1.40;0.70;;;;;;;20.04;50.65;102073.13;16129660;19;130045;-59
2022/06/02 06:18:10;;;;;;;2.08;0.40;;;;;;;20.10;50.38;102079.72;16134473;19;129066;-59
2022/06/02 06:24:08;;;;;;;0.30;0.30;;;;;;;20.16;50.16;102091.84;16132394;19;129925;-59
2022/06/02 06:29:52;;;;;;;0.63;0.30;;;;;;;20.21;50.36;102094.78;16146409;19;131275;-58
2022/06/02 06:35:28;;;;;;;0.73;0.30;;;;;;;20.25;50.20;102102.44;16151711;19;129324;-54
2022/06/02 06:41:25;;;;;;;1.23;0.75;;;;;;;20.32;50.16;102113.47;16148576;19;129065;-56
2022/06/02 06:47:05;;;;;;;0.63;0.35;;;;;;;20.35;49.79;102112.16;16150513;19;129079;-57
2022/06/02 06:53:06;;;;;;;1.95;0.50;;;;;;;20.36;49.76;102109.19;16148055;19;129624;-55
2022/06/02 06:58:53;;;;;;;3.08;0.50;;;;;;;20.32;48.72;102116.25;16148054;19;129591;-56
2022/06/02 07:04:14;;;;;;;2.25;0.98;;;;;;;20.23;47.89;102112.91;16145264;19;129045;-52
2022/06/02 07:10:07;;;;;;;2.70;1.00;;;;;;;20.22;47.05;102116.78;16146162;19;129105;-54
2022/06/02 07:15:33;;;;;;;3.50;1.00;;;;;;;20.19;46.85;102108.88;16146374;19;130862;-52
2022/06/02 07:20:54;;;;;;;2.20;0.70;;;;;;;20.22;46.81;102111.22;16148665;19;129833;-51
2022/06/02 07:26:30;;;;;;;1.90;0.60;;;;;;;20.26;46.77;102114.38;16147746;19;129365;-51
2022/06/02 07:32:02;;;;;;;;;;;;;;;20.21;46.57;102114.25;16145715;19;130300;-56
2022/06/02 07:37:34;;;;;;;1.95;0.60;;;;;;;20.27;46.83;102110.53;16148952;19;129455;-49
2022/06/02 07:43:16;;;;;;;1.40;0.52;;;;;;;20.31;46.33;102114.56;16141134;19;130422;-52
2022/06/02 07:48:59;;;;;;;3.47;0.80;;;;;;;20.35;46.62;102106.59;16146655;19;129353;-52
2022/06/02 07:54:43;;;;;;;1.23;0.60;;;;;;;20.37;46.46;102108.06;16147217;19;130024;-51
2022/06/02 08:00:13;;;;;;;1.60;0.50;;;;;;;20.44;46.50;102108.00;16146572;19;130156;-52
2022/06/02 08:06:09;;;;;;;2.28;0.70;;;;;;;20.48;46.34;102094.53;16146476;19;128744;-49
2022/06/02 08:11:57;;;;;;;0.80;0.40;;;;;;;20.51;46.46;102082.91;16143212;19;129098;-52
2022/06/02 08:17:29;;;;;;;1.38;0.70;;;;;;;20.54;46.33;102080.53;16146624;19;128980;-51
2022/06/02 08:23:05;;;;;;;2.65;0.50;;;;;;;20.58;45.87;102095.66;16142904;19;129007;-53
2022/06/02 08:28:39;;;;;;;2.65;0.60;;;;;;;20.62;45.97;102106.34;16145510;19;129138;-53
2022/06/02 08:34:12;;;;;;;1.75;0.73;;;;;;;20.58;46.12;102112.34;16143792;19;129380;-53
2022/06/02 08:39:46;;;;;;;1.73;0.63;;;;;;;20.59;45.76;102104.88;16143214;19;129613;-49
2022/06/02 08:45:35;;;;;;;1.10;0.50;;;;;;;20.58;45.84;102117.91;16138006;19;129220;-54
2022/06/02 08:51:27;;;;;;;1.08;0.50;;;;;;;20.55;45.52;102123.94;16141933;19;129016;-50
2022/06/02 08:57:08;;;;;;;1.15;0.55;;;;;;;20.54;45.68;102116.69;16143394;19;129443;-52
2022/06/02 09:02:51;;;;;;;1.20;0.55;;;;;;;20.53;45.73;102114.13;16140089;19;130027;-54
2022/06/02 09:08:51;;;;;;;2.70;0.55;;;;;;;20.51;45.63;102111.59;16143912;19;129465;-52
2022/06/02 09:14:41;;;;;;;1.10;0.60;;;;;;;20.51;44.98;102119.91;16140381;19;129876;-52
2022/06/02 09:20:30;;;;;;;1.17;0.47;;;;;;;20.50;45.16;102121.00;16140593;19;129356;-48
2022/06/02 09:25:55;;;;;;;0.90;0.52;;;;;;;20.50;44.92;102121.00;16138936;19;128942;-51
2022/06/02 09:32:01;;;;;;;1.13;0.40;;;;;;;20.48;45.31;102117.59;16139784;19;129361;-54
2022/06/02 09:37:50;;;;;;;0.67;0.53;;;;;;;20.47;45.09;102115.88;16127160;19;132442;-50
2022/06/02 09:43:34;;;;;;;2.40;0.50;;;;;;;20.45;44.78;102115.25;16126169;19;131947;-52
2022/06/02 09:49:24;;;;;;;1.33;0.60;;;;;;;20.42;44.38;102118.53;16130055;19;129546;-51
2022/06/02 09:55:08;;;;;;;0.82;0.52;;;;;;;20.40;44.88;102112.34;16128943;19;130390;-52
2022/06/02 10:01:01;;;;;;;0.65;0.57;;;;;;;20.40;44.13;102113.19;16129596;19;129405;-53
2022/06/02 10:06:48;;;;;;;0.80;0.60;;;;;;;20.40;44.41;102110.41;16145669;19;130353;-51
2022/06/02 10:12:55;;;;;;;1.50;0.52;;;;;;;20.42;43.92;102108.25;16147582;19;129964;-54
2022/06/02 10:18:54;;;;;;;0.90;0.45;;;;;;;20.42;43.88;102101.84;16154046;19;132187;-53
2022/06/02 10:24:21;;;;;;;1.33;0.50;;;;;;;20.40;44.00;102099.28;16148371;19;129291;-52
2022/06/02 10:30:17;;;;;;;3.22;0.60;;;;;;;20.42;43.96;102094.34;16150465;19;129329;-54
2022/06/02 10:35:48;;;;;;;1.10;0.50;;;;;;;20.40;43.92;102077.03;16147418;19;129443;-55
2022/06/02 10:41:32;;;;;;;2.28;0.70;;;;;;;20.40;43.90;102087.31;16149018;19;128929;-48
2022/06/02 10:47:09;;;;;;;0.45;0.40;;;;;;;20.40;43.62;102092.88;16150440;19;129041;-55
2022/06/02 10:53:08;;;;;;;0.90;0.40;;;;;;;20.40;43.98;102084.56;16151111;19;130260;-54
2022/06/02 10:58:57;;;;;;;2.03;0.70;;;;;;;20.39;43.67;102085.63;16149849;19;128934;-50
2022/06/02 11:04:43;;;;;;;1.55;0.50;;;;;;;20.38;43.78;102068.09;16145744;19;129355;-53
2022/06/02 11:10:22;;;;;;;1.23;0.50;;;;;;;20.37;43.58;102071.94;16148420;19;129337;-52
2022/06/02 11:15:47;;;;;;;0.82;0.50;;;;;;;20.37;43.84;102065.53;16144099;19;129824;-51
2022/06/02 11:21:21;;;;;;;0.57;0.47;;;;;;;20.38;43.65;102056.97;16148307;19;129071;-50
2022/06/02 11:27:09;;;;;;;1.13;0.70;;;;;;;20.37;43.71;102046.94;16147444;19;129856;-53
2022/06/02 11:32:55;;;;;;;1.20;0.50;;;;;;;20.39;43.23;102046.72;16146549;19;129831;-51
2022/06/02 11:38:32;;;;;;;;;;;;;;;20.35;43.34;102035.22;16148688;19;129243;-55
2022/06/02 11:43:59;;;;;;;3.27;0.60;;;;;;;20.38;43.28;102028.34;16143044;19;128896;-52
2022/06/02 11:49:50;;;;;;;1.50;0.63;;;;;;;20.37;42.75;102026.63;16146929;19;129398;-50
2022/06/02 11:55:34;;;;;;;1.58;0.50;;;;;;;20.35;42.74;102014.91;16141917;19;130715;-50
2022/06/02 12:01:13;;;;;;;1.55;0.40;;;;;;;20.34;42.85;102002.94;16141165;19;129538;-49
2022/06/02 12:07:10;;;;;;;1.25;0.50;;;;;;;20.36;42.67;101999.94;16143015;19;129454;-50
2022/06/02 12:12:49;;;;;;;1.33;0.50;;;;;;;20.34;42.55;101979.84;16138630;19;128879;-51
2022/06/02 12:18:37;;;;;;;1.77;0.50;;;;;;;20.36;42.61;101977.69;16144299;19;129505;-49
2022/06/02 12:24:17;;;;;;;2.05;0.57;;;;;;;20.35;42.00;101967.66;16139894;19;129102;-49
2022/06/02 12:30:17;;;;;;;1.05;0.60;;;;;;;20.32;42.06;101957.00;16140585;19;130497;-50
2022/06/02 12:36:09;;;;;;;1.17;0.70;;;;;;;20.32;42.10;101966.19;16125775;19;129997;-53
2022/06/02 12:41:59;;;;;;;3.50;0.73;;;;;;;20.31;41.71;101958.09;16131251;19;129988;-49
2022/06/02 12:47:41;;;;;;;2.05;0.70;;;;;;;20.28;41.29;101951.94;16135654;19;131392;-48
2022/06/02 12:53:27;;;;;;;1.83;1.08;;;;;;;20.29;40.09;101952.75;16128939;19;129490;-49
2022/06/02 12:59:17;;;;;;;2.92;1.17;;;;;;;20.23;39.99;101943.44;16127705;19;129311;-54
2022/06/02 13:05:01;;;;;;;3.72;1.00;;;;;;;20.22;40.10;101940.88;16128757;19;129718;-50
2022/06/02 13:10:41;;;;;;;1.25;0.90;;;;;;;20.22;39.40;101933.38;16133930;19;129200;-51
2022/06/02 13:16:06;;;;;;;3.22;0.60;;;;;;;20.23;39.60;101943.44;16135909;19;129625;-49
2022/06/02 13:22:07;;;;;;;5.27;0.90;;;;;;;20.25;39.63;101941.25;16133708;19;129824;-53
2022/06/02 13:27:35;;;;;;;3.05;0.70;;;;;;;20.24;39.33;101939.56;16138589;19;129309;-47
2022/06/02 13:33:27;;;;;;;1.65;0.82;;;;;;;20.28;39.89;101939.94;16136765;19;129953;-47
2022/06/02 13:39:00;;;;;;;1.42;0.60;;;;;;;20.28;39.57;101939.94;16136164;19;129162;-49
2022/06/02 13:44:34;;;;;;;5.43;0.75;;;;;;;20.27;39.63;101932.69;16136250;19;129244;-53
2022/06/02 13:50:04;;;;;;;1.95;0.73;;;;;;;20.27;39.51;101930.78;16135318;19;129197;-48
2022/06/02 14:02:02;;;;;;;2.22;0.70;;;;;;;20.27;39.82;101933.56;16135618;19;129070;-46
2022/06/02 14:07:51;;;;;;;1.42;0.93;;;;;;;20.28;39.27;101923.28;16135383;19;129329;-48
2022/06/02 14:13:31;;;;;;;1.55;0.90;;;;;;;20.26;39.60;101926.28;16130206;19;128928;-49
2022/06/02 14:19:20;;;;;;;1.83;0.80;;;;;;;20.26;39.24;101912.41;16133562;19;129371;-53
2022/06/02 14:25:00;;;;;;;1.60;0.73;;;;;;;20.26;39.60;101911.53;16131000;19;130569;-48
2022/06/02 14:30:49;;;;;;;3.97;0.90;;;;;;;20.28;39.57;101904.69;16130983;19;130688;-51
2022/06/02 14:36:19;;;;;;;1.98;0.70;;;;;;;20.31;39.39;101906.13;16132270;19;130170;-53
2022/06/02 14:41:47;;;;;;;1.92;0.88;;;;;;;20.30;39.22;101904.44;16133587;19;130807;-51
2022/06/02 14:47:20;;;;;;;1.50;0.65;;;;;;;20.33;39.21;101897.56;16131840;19;128914;-51
2022/06/02 14:52:53;;;;;;;5.47;0.90;;;;;;;20.32;39.39;101895.84;16150811;19;129098;-53
2022/06/02 14:59:01;;;;;;;2.13;0.77;;;;;;;20.33;39.17;101895.63;16144917;19;130283;-47
2022/06/02 15:04:53;;;;;;;1.27;0.73;;;;;;;20.34;38.86;101894.56;16143407;19;131445;-52
2022/06/02 15:10:44;;;;;;;2.20;0.80;;;;;;;20.33;39.27;101892.88;16143056;19;131907;-54
2022/06/02 15:16:43;;;;;;;2.83;0.80;;;;;;;20.34;39.21;101882.59;16145418;19;129404;-54
2022/06/02 15:22:25;;;;;;;1.85;0.70;;;;;;;20.34;38.99;101879.81;16145965;19;130114;-53
2022/06/02 15:28:28;;;;;;;2.97;0.80;;;;;;;20.34;38.77;101877.03;16144966;19;129805;-50
2022/06/02 15:33:51;;;;;;;1.10;0.60;;;;;;;20.32;39.18;101873.63;16137095;19;130073;-47
2022/06/02 15:39:40;;;;;;;1.42;0.70;;;;;;;20.34;38.99;101871.47;16141589;19;129380;-52
2022/06/02 15:45:39;;;;;;;2.38;0.90;;;;;;;20.33;38.70;101875.31;16137393;19;131988;-52
2022/06/02 15:51:42;;;;;;;0.88;0.60;;;;;;;20.33;38.37;101855.88;16136590;19;130640;-51
2022/06/02 15:57:21;;;;;;;2.38;0.77;;;;;;;20.35;38.73;101850.94;16135629;19;129213;-48
2022/06/02 16:02:43;;;;;;;4.00;0.75;;;;;;;20.34;38.38;101846.44;16133244;19;129172;-51
2022/06/02 16:08:17;;;;;;;1.45;0.60;;;;;;;20.33;38.15;101836.41;16136244;19;129262;-52
2022/06/02 16:13:57;;;;;;;4.00;0.88;;;;;;;20.34;37.67;101838.97;16134752;19;130430;-48
2022/06/02 16:19:54;;;;;;;6.80;1.08;;;;;;;20.36;37.57;101835.97;16134200;19;129371;-55
2022/06/02 16:25:22;;;;;;;1.60;0.88;;;;;;;20.35;38.80;101834.25;16133659;19;129420;-53
2022/06/02 16:31:12;;;;;;;3.47;1.02;;;;;;;20.38;38.54;101831.00;16136426;19;129850;-50
2022/06/02 16:36:52;;;;;;;4.00;1.20;;;;;;;20.38;38.68;101822.69;16142173;19;130149;-52
2022/06/02 16:42:39;;;;;;;4.10;1.50;;;;;;;20.37;38.48;101827.38;16141642;19;129029;-55
2022/06/02 16:48:43;;;;;;;1.50;1.30;;;;;;;20.38;38.91;101828.22;16140152;19;129302;-55
2022/06/02 16:54:23;;;;;;;4.65;1.20;;;;;;;20.38;38.44;101815.16;16141492;19;128916;-54
2022/06/02 17:00:13;;;;;;;2.13;1.17;;;;;;;20.40;38.36;101803.84;16138972;19;129523;-55
2022/06/02 17:05:42;;;;;;;2.05;1.10;;;;;;;20.41;38.74;101805.53;16136075;19;129386;-53
2022/06/02 17:11:14;;;;;;;4.88;1.40;;;;;;;20.42;38.74;101807.22;16134003;19;129609;-53
2022/06/02 17:16:42;;;;;;;2.13;0.93;;;;;;;20.42;38.61;101810.00;16136246;19;129387;-54
2022/06/02 17:22:49;;;;;;;2.30;0.90;;;;;;;20.43;38.23;101814.50;16134421;19;129509;-52
2022/06/02 17:28:43;;;;;;;2.28;1.20;;;;;;;20.42;38.88;101818.34;16135368;19;130485;-54
2022/06/02 17:34:30;;;;;;;5.05;1.10;;;;;;;20.41;38.48;101814.72;16128572;19;130947;-51
2022/06/02 17:40:03;;;;;;;1.67;0.60;;;;;;;20.42;38.48;101823.91;16135222;19;129518;-51
2022/06/02 17:45:33;;;;;;;1.23;0.70;;;;;;;20.39;38.54;101824.38;16123353;19;129688;-51
2022/06/02 17:50:58;;;;;;;2.08;0.70;;;;;;;20.39;38.46;101827.16;16130373;19;129672;-49
2022/06/02 17:56:32;;;;;;;4.05;0.70;;;;;;;20.41;38.24;101834.16;16126847;19;131187;-54
2022/06/02 18:02:01;;;;;;;1.65;0.60;;;;;;;20.44;38.44;101832.84;16124626;19;129046;-53
2022/06/02 18:07:41;;;;;;;6.07;0.85;;;;;;;20.45;38.36;101828.97;16122355;19;130408;-50
2022/06/02 18:13:24;;;;;;;3.15;0.60;;;;;;;20.51;38.20;101829.94;16123269;19;130738;-53
2022/06/02 18:19:24;;;;;;;4.22;0.75;;;;;;;20.52;37.92;101818.63;16134615;19;129846;-51
2022/06/02 18:25:02;;;;;;;2.65;0.50;;;;;;;20.53;38.30;101822.22;16131783;19;130005;-47
2022/06/02 18:30:47;;;;;;;2.35;0.60;;;;;;;20.53;37.96;101820.31;16138208;19;129411;-53
2022/06/02 18:36:30;;;;;;;2.13;0.40;;;;;;;20.52;38.19;101817.75;16141265;19;130837;-53
2022/06/02 18:42:17;;;;;;;0.88;0.50;;;;;;;20.51;38.16;101821.63;16138514;19;129339;-53
2022/06/02 18:48:06;;;;;;;1.52;0.47;;;;;;;20.49;38.55;101810.75;16131921;19;130827;-49
2022/06/02 18:53:32;;;;;;;2.05;0.60;;;;;;;20.48;38.32;101805.44;16137369;19;129334;-51
2022/06/02 18:59:30;;;;;;;2.55;0.57;;;;;;;20.47;38.73;101804.56;16140256;19;129802;-46
2022/06/02 19:05:29;;;;;;;2.83;0.55;;;;;;;20.45;38.66;101801.19;16140200;19;129573;-50
2022/06/02 19:17:08;;;;;;;6.07;0.50;;;;;;;20.41;38.49;101808.31;16144266;19;130026;-50
2022/06/02 19:22:48;;;;;;;1.88;0.43;;;;;;;20.39;39.03;101813.25;16145048;19;130662;-54
2022/06/02 19:28:41;;;;;;;2.20;0.50;;;;;;;20.40;38.94;101821.34;16140992;19;129170;-51
2022/06/02 19:34:18;;;;;;;4.30;0.90;;;;;;;20.40;38.85;101826.06;16142903;19;129589;-47
2022/06/02 19:39:51;;;;;;;4.63;0.77;;;;;;;20.44;38.79;101828.13;16133847;19;129653;-48
2022/06/02 19:45:23;;;;;;;3.10;0.90;;;;;;;20.49;38.97;101824.66;16133767;19;129993;-57
2022/06/02 19:50:49;;;;;;;11.57;1.17;;;;;;;20.53;38.89;101823.09;16137863;19;128884;-52
2022/06/02 19:56:39;;;;;;;9.90;1.58;;;;;;;20.56;39.08;101819.81;16135698;19;130934;-53
2022/06/02 20:02:16;;;;;;;10.18;0.98;;;;;;;20.60;38.70;101823.81;16137289;19;129859;-53
2022/06/02 20:07:41;;;;;;;9.18;0.90;;;;;;;20.63;38.87;101835.56;16129514;19;130318;-49
2022/06/02 20:13:16;;;;;;;6.53;0.98;;;;;;;20.65;38.71;101839.78;16128757;19;130379;-53
2022/06/02 20:18:47;;;;;;;2.70;0.80;;;;;;;20.68;38.84;101833.75;16131148;19;131123;-52
2022/06/02 20:24:41;;;;;;;7.40;0.98;;;;;;;20.69;39.07;101834.59;16133891;19;129308;-51
2022/06/02 20:30:24;;;;;;;2.65;0.90;;;;;;;20.68;38.83;101839.31;16136268;19;129065;-51
2022/06/02 20:35:49;;;;;;;6.53;1.10;;;;;;;20.68;39.06;101844.00;16131790;19;128938;-55
2022/06/02 20:41:48;;;;;;;8.10;1.03;;;;;;;20.69;39.28;101845.72;16130903;19;131192;-49
2022/06/02 20:47:33;;;;;;;4.60;0.80;;;;;;;20.71;38.95;101849.09;16127530;19;130447;-51
2022/06/02 20:53:00;;;;;;;6.28;0.77;;;;;;;20.72;39.33;101836.91;16130895;19;130846;-52
2022/06/02 20:58:51;;;;;;;3.03;0.90;;;;;;;20.69;38.95;101842.94;16126757;19;131337;-48
2022/06/02 21:04:32;;;;;;;8.38;0.80;;;;;;;20.65;38.89;101839.78;16118522;19;129650;-51
2022/06/02 21:10:03;;;;;;;4.03;0.88;;;;;;;20.60;38.83;101837.72;16118296;19;129863;-52
2022/06/02 21:15:36;;;;;;;4.95;1.52;;;;;;;20.57;39.04;101843.75;16124470;19;130701;-52
2022/06/02 21:21:09;;;;;;;3.22;0.82;;;;;;;20.52;38.68;101838.06;16138823;19;129960;-47
2022/06/02 21:27:31;;;;;;;4.97;0.90;;;;;;;20.47;38.99;101835.16;16135161;19;129820;-53
2022/06/02 21:33:25;;;;;;;2.03;0.50;;;;;;;20.43;38.74;101832.00;16122582;19;129846;-52
2022/06/02 21:38:51;;;;;;;1.77;0.90;;;;;;;20.41;38.77;101836.09;16121465;19;129888;-51
2022/06/02 21:44:38;;;;;;;1.73;0.90;;;;;;;20.38;38.48;101834.63;16124571;19;129035;-49
2022/06/02 21:50:09;;;;;;;4.28;0.70;;;;;;;20.34;38.74;101832.56;16125890;19;129202;-50
2022/06/02 21:55:46;;;;;;;4.28;1.08;;;;;;;20.33;38.93;101825.31;16126119;19;130638;-52
2022/06/02 22:01:29;;;;;;;1.52;0.60;;;;;;;20.31;38.61;101821.94;16143792;19;129695;-52
2022/06/02 22:06:58;;;;;;;1.20;0.82;;;;;;;20.27;38.82;101825.19;16147346;19;129129;-52
2022/06/02 22:12:44;;;;;;;1.08;0.80;;;;;;;20.25;38.44;101830.13;16143904;19;129290;-48
2022/06/02 22:18:15;;;;;;;1.30;0.80;;;;;;;20.22;38.73;101824.19;16144951;19;129497;-52
2022/06/02 22:24:01;;;;;;;1.02;0.70;;;;;;;20.21;38.64;101828.88;16148611;19;129647;-52
2022/06/02 22:29:27;;;;;;;1.88;0.70;;;;;;;20.18;38.73;101834.94;16148659;19;128985;-52
2022/06/02 22:35:26;;;;;;;1.50;0.60;;;;;;;20.18;38.15;101832.16;16144469;19;129332;-52
2022/06/02 22:40:59;;;;;;;1.80;0.60;;;;;;;20.14;38.17;101828.16;16148265;19;128873;-53
2022/06/02 22:46:31;;;;;;;0.75;0.52;;;;;;;20.13;38.11;101830.06;16144906;19;129343;-53
2022/06/02 22:52:11;;;;;;;2.45;0.70;;;;;;;20.13;38.04;101832.00;16147137;19;132906;-53
2022/06/02 22:57:51;;;;;;;1.33;0.68;;;;;;;20.11;38.29;101834.16;16142919;19;130212;-53
2022/06/02 23:03:33;;;;;;;0.90;0.50;;;;;;;20.09;38.07;101831.63;16148163;19;132384;-49
2022/06/02 23:09:16;;;;;;;1.65;0.70;;;;;;;20.09;38.42;101834.41;16141248;19;129410;-53
2022/06/02 23:14:50;;;;;;;2.70;0.50;;;;;;;20.07;38.17;101833.78;16147603;19;129361;-51
2022/06/02 23:20:19;;;;;;;0.68;0.50;;;;;;;20.06;38.33;101828.47;16148137;19;131616;-50
2022/06/02 23:25:46;;;;;;;0.60;0.50;;;;;;;20.05;38.38;101835.13;16146291;19;132545;-50
2022/06/02 23:31:31;;;;;;;1.52;0.70;;;;;;;20.06;38.23;101825.69;16143324;19;129428;-54
2022/06/02 23:37:15;;;;;;;0.90;0.70;;;;;;;20.05;38.44;101832.34;16139378;19;130562;-50
2022/06/02 23:49:25;;;;;;;0.90;0.50;;;;;;;20.01;37.97;101822.75;16132012;19;128938;-48
2022/06/02 23:54:56;;;;;;;1.23;0.60;;;;;;;19.99;38.01;101814.66;16135186;19;129906;-54
